Port Orford, OR

7:46 AM PDT on October 01, 2014 (GMT -0700)
Sexton Summit | Change Station
CLOSE
Current Station
Airport
Location: Sexton Summit,
Elevation: 3839 ft
Nearby Weather Stations

Elev 3839 ft 42.60 °N, 123.36 °W | Updated 23 minutes ago

Clear
Clear
41 °F
Feels Like 35 °F
N
9
Wind Variable Wind from ENE

Today
High -- | Low -- °F
--% Chance of Precip.
Yesterday
High -- | Low -- °F
Precip. -- in
7:15 AM 6:59 PM
Waxing Crescent, 48% visible
Pressure 30.17 in
Visibility 10.0 miles
Clouds Few 100 ft
Windchill 35 °F
Dew Point 40 °F
Humidity 96%
Rainfall 0.00 in
Snow Depth 0 in , 0 in , 0 in
UV 0 out of 12
Pollen 2.80 out of 12
Air Quality Not available.
Flu Activity Not available.
SPECI KSXT 011423Z AUTO 06008KT 10SM FEW001 05/04 A3017 RMK AO2 T00500044 $

More Conditions Fewer Conditions

Pressure 30.17 in
Visibility 10.0 miles
Clouds Few 100 ft
Windchill 35 °F
Dew Point 40 °F
Humidity 96%
Rainfall 0.00 in
Snow Depth 0 in , 0 in , 0 in
UV 0 out of 12
Pollen 2.80 out of 12
Air Quality Not available.
Flu Activity Not available.
SPECI KSXT 011423Z AUTO 06008KT 10SM FEW001 05/04 A3017 RMK AO2 T00500044 $

More Conditions Fewer Conditions

10-Day Weather Forecast

Almanac

Astronomy

Oct. 01, 2014 Rise Set
Actual Time 7:15 AM PDT 6:59 PM PDT
Civil Twilight 6:47 AM PDT 7:27 PM PDT
Nautical Twilight 6:14 AM PDT 7:59 PM PDT
Astronomical Twilight 5:41 AM PDT 8:33 PM PDT
Moon 2:26 PM PDT No Moon Set
Length of Visible Light 12h 40m
Length of Day
11h 43m
Tomorrow will be 2m 52s shorter.
Waxing Crescent, 48% of the Moon is Illuminated
Today
Waxing Crescent
Oct 1
First Quarter
Oct 8
Full
Oct 15
Last Quarter
Oct 23
New

Today's Extremes

State Highs State Lows

Community

WunderPhotos

Upload Photos

1,757,960 photos uploaded!

Nearby

Snow Depth

Station Depth Elevation
Three Creeks Meadow 0 in 5650 ft
Blazed Alder 0 in 3650 ft
Mckenzie 0 in 4800 ft
Greenpoint 0 in 3200 ft
Gerber Reservoir 0 in 4850 ft

Earthquake Activity

City Distance Mag. Time & Date
No recent earthquake activity has been reported nearby.
Minimum magnitude displayed is 2.5.

Coastal Water Temperatures

Place Temperature
Port Orford, OR 55.9 °F
Crescent City, CA 57.9 °F
Charleston, OR 57.9 °F

Nearby Weather Stations